createdAt,value
2017-09-18T00:00:42.904Z,99.99
2017-09-18T00:02:05.364Z,99.99
2017-09-18T00:03:27.444Z,99.99
2017-09-18T00:04:49.644Z,99.99
2017-09-18T00:06:11.795Z,99.99
2017-09-18T00:07:33.943Z,99.99
2017-09-18T00:08:56.417Z,99.99
2017-09-18T00:10:18.914Z,99.99
2017-09-18T00:11:41.066Z,99.99
2017-09-18T00:13:03.525Z,99.99
2017-09-18T00:14:25.471Z,99.99
2017-09-18T00:15:47.315Z,99.99
2017-09-18T00:17:08.919Z,99.99
2017-09-18T00:18:30.767Z,99.99
2017-09-18T00:19:52.914Z,99.99
2017-09-18T00:21:14.735Z,99.99
2017-09-18T00:22:35.885Z,99.99
2017-09-18T00:23:58.015Z,99.99
2017-09-18T00:25:20.506Z,99.99
2017-09-18T00:26:42.324Z,99.99
2017-09-18T00:28:04.133Z,99.99
2017-09-18T00:29:26.270Z,99.99
2017-09-18T00:30:48.104Z,99.99
2017-09-18T00:32:10.236Z,99.99
2017-09-18T00:33:32.686Z,99.99
2017-09-18T00:34:54.830Z,99.99
2017-09-18T00:36:16.977Z,99.99
2017-09-18T00:37:38.887Z,99.99
2017-09-18T00:39:01.011Z,99.99
2017-09-18T00:40:22.505Z,99.99
2017-09-18T00:41:44.678Z,99.99
2017-09-18T00:43:05.827Z,99.99
2017-09-18T00:44:27.979Z,99.99
2017-09-18T00:45:49.799Z,99.99
2017-09-18T00:47:11.555Z,99.99
2017-09-18T00:48:33.822Z,99.99
2017-09-18T00:49:56.265Z,99.99
2017-09-18T00:51:18.414Z,99.99
2017-09-18T00:52:40.907Z,99.99
2017-09-18T00:54:03.352Z,99.99
2017-09-18T00:55:25.182Z,99.99
2017-09-18T00:56:47.084Z,99.99
2017-09-18T00:58:09.585Z,99.99
2017-09-18T00:59:31.064Z,99.99
2017-09-18T01:00:53.228Z,99.99
2017-09-18T01:02:15.404Z,99.99
2017-09-18T01:03:37.620Z,99.99
2017-09-18T01:04:59.745Z,99.99
2017-09-18T01:06:21.565Z,99.99
2017-09-18T01:07:43.743Z,99.99
2017-09-18T01:09:06.032Z,99.99
2017-09-18T01:10:28.179Z,99.99
2017-09-18T01:11:50.064Z,99.99
2017-09-18T01:13:12.518Z,99.99
2017-09-18T01:14:34.683Z,99.99
2017-09-18T01:15:56.594Z,99.99
2017-09-18T01:17:18.734Z,99.99
2017-09-18T01:18:40.592Z,99.99
2017-09-18T01:20:02.242Z,99.99
2017-09-18T01:21:24.064Z,99.99
2017-09-18T01:22:45.552Z,99.99
2017-09-18T01:24:07.007Z,99.99
2017-09-18T01:25:28.804Z,99.99
2017-09-18T01:26:50.278Z,99.99
2017-09-18T01:28:12.407Z,99.99
2017-09-18T01:29:34.214Z,99.99
2017-09-18T01:30:56.725Z,99.99
2017-09-18T01:32:18.538Z,99.99
2017-09-18T01:33:41.095Z,99.99
2017-09-18T01:35:03.556Z,99.99
2017-09-18T01:36:25.070Z,99.99
2017-09-18T01:37:46.855Z,99.99
2017-09-18T01:39:09.315Z,99.99
2017-09-18T01:40:31.145Z,99.99
2017-09-18T01:41:53.315Z,99.99
2017-09-18T01:43:15.464Z,99.99
2017-09-18T01:44:37.584Z,99.99
2017-09-18T01:45:59.464Z,99.99
2017-09-18T01:47:20.858Z,99.99
2017-09-18T01:48:42.468Z,99.99
2017-09-18T01:50:04.284Z,99.99
2017-09-18T01:51:26.534Z,99.99
2017-09-18T01:52:49.024Z,99.99
2017-09-18T01:54:10.537Z,99.99
2017-09-18T01:55:32.341Z,99.99
2017-09-18T01:56:54.172Z,99.99
2017-09-18T01:58:16.744Z,99.99
2017-09-18T01:59:39.214Z,99.99
2017-09-18T02:01:01.004Z,99.99
2017-09-18T02:02:22.167Z,99.99
2017-09-18T02:03:44.664Z,99.99
2017-09-18T02:05:07.126Z,99.99
2017-09-18T02:06:28.303Z,99.99
2017-09-18T02:07:50.214Z,99.99
2017-09-18T02:09:11.735Z,99.99
2017-09-18T02:10:33.555Z,99.99
2017-09-18T02:11:55.375Z,99.99
2017-09-18T02:13:16.918Z,99.99
2017-09-18T02:14:39.490Z,99.99
2017-09-18T02:16:00.967Z,99.99
2017-09-18T02:17:23.118Z,99.99
2017-09-18T02:18:44.584Z,99.99
2017-09-18T02:20:06.744Z,99.99
2017-09-18T02:21:29.005Z,99.99
2017-09-18T02:22:51.130Z,99.99
2017-09-18T02:24:12.921Z,99.99
2017-09-18T02:25:35.039Z,99.99
2017-09-18T02:26:56.644Z,99.99
2017-09-18T02:28:18.813Z,99.99
2017-09-18T02:29:40.622Z,99.99
2017-09-18T02:31:03.190Z,99.99
2017-09-18T02:32:25.111Z,99.99
2017-09-18T02:33:46.988Z,99.99
2017-09-18T02:35:07.967Z,99.99
2017-09-18T02:36:30.494Z,99.99
2017-09-18T02:37:51.704Z,99.99
2017-09-18T02:39:13.545Z,99.99
2017-09-18T02:40:35.729Z,99.99
2017-09-18T02:41:57.214Z,99.99
2017-09-18T02:43:18.712Z,99.99
2017-09-18T02:44:40.823Z,99.99
2017-09-18T02:46:02.084Z,99.99
2017-09-18T02:47:24.904Z,99.99
2017-09-18T02:48:47.364Z,99.99
2017-09-18T02:50:08.843Z,99.99
2017-09-18T02:51:30.644Z,99.99
2017-09-18T02:52:53.354Z,99.99
2017-09-18T02:54:15.486Z,99.99
2017-09-18T02:55:37.953Z,99.99
2017-09-18T02:56:59.890Z,99.99
2017-09-18T02:58:22.080Z,99.99
2017-09-18T02:59:44.534Z,99.99
2017-09-18T03:01:06.664Z,99.99
2017-09-18T03:02:28.515Z,99.99
2017-09-18T03:03:51.439Z,99.99
2017-09-18T03:05:13.243Z,99.99
2017-09-18T03:06:34.856Z,99.99
2017-09-18T03:07:56.121Z,99.99
2017-09-18T03:09:17.653Z,99.99
2017-09-18T03:10:39.475Z,99.99
2017-09-18T03:12:01.304Z,99.99
2017-09-18T03:13:22.809Z,99.99
2017-09-18T03:14:45.614Z,99.99
2017-09-18T03:16:07.763Z,99.99
2017-09-18T03:17:29.250Z,99.99
2017-09-18T03:18:51.372Z,99.99
2017-09-18T03:20:13.537Z,99.99
2017-09-18T03:21:35.430Z,99.99
2017-09-18T03:22:57.223Z,99.99
2017-09-18T03:24:18.723Z,99.99
2017-09-18T03:25:40.870Z,99.99
2017-09-18T03:27:02.669Z,99.99
2017-09-18T03:28:24.469Z,99.99
2017-09-18T03:29:45.632Z,99.99
2017-09-18T03:31:07.373Z,99.99
2017-09-18T03:32:29.200Z,99.99
2017-09-18T03:33:50.714Z,99.99
2017-09-18T03:35:12.331Z,99.99
2017-09-18T03:36:34.474Z,99.99
2017-09-18T03:37:55.946Z,99.99
2017-09-18T03:39:18.039Z,99.99
2017-09-18T03:40:40.507Z,99.99
2017-09-18T03:42:02.024Z,99.99
2017-09-18T03:43:23.251Z,99.99
2017-09-18T03:44:45.053Z,99.99
2017-09-18T03:46:06.956Z,99.99
2017-09-18T03:47:29.445Z,99.99
2017-09-18T03:48:51.258Z,99.99
2017-09-18T03:50:13.234Z,99.99
2017-09-18T03:51:35.013Z,99.99
2017-09-18T03:52:57.134Z,99.99
2017-09-18T03:54:18.951Z,99.99
2017-09-18T03:55:40.743Z,99.99
2017-09-18T03:57:02.886Z,99.99
2017-09-18T03:58:24.751Z,99.99
2017-09-18T03:59:46.935Z,99.99
2017-09-18T04:01:08.414Z,99.99
2017-09-18T04:02:29.888Z,99.99
2017-09-18T04:03:51.724Z,99.99
2017-09-18T04:05:13.234Z,99.99
2017-09-18T04:06:35.068Z,99.99
2017-09-18T04:07:56.574Z,99.99
2017-09-18T04:09:18.142Z,99.99
2017-09-18T04:10:39.979Z,99.99
2017-09-18T04:12:02.084Z,99.99
2017-09-18T04:13:23.943Z,99.99
2017-09-18T04:14:45.430Z,99.99
2017-09-18T04:16:07.605Z,99.99
2017-09-18T04:17:29.744Z,99.99
2017-09-18T04:18:51.868Z,99.99
2017-09-18T04:20:13.780Z,99.99
2017-09-18T04:21:35.881Z,99.99
2017-09-18T04:22:57.998Z,99.99
2017-09-18T04:24:19.496Z,99.99
2017-09-18T04:25:42.052Z,99.99
2017-09-18T04:27:03.882Z,99.99
2017-09-18T04:28:25.414Z,99.99
2017-09-18T04:29:47.221Z,99.99
2017-09-18T04:31:10.171Z,99.99
2017-09-18T04:32:32.666Z,99.99
2017-09-18T04:33:54.160Z,99.99
2017-09-18T04:35:16.294Z,99.99
2017-09-18T04:36:38.441Z,99.99
2017-09-18T04:37:59.945Z,99.99
2017-09-18T04:39:21.094Z,99.99
2017-09-18T04:40:43.867Z,99.99
2017-09-18T04:42:06.148Z,99.99
2017-09-18T04:43:28.005Z,99.99
2017-09-18T04:44:49.833Z,99.99
2017-09-18T04:46:11.654Z,99.99
2017-09-18T04:47:33.813Z,99.99
2017-09-18T04:48:54.993Z,99.99
2017-09-18T04:50:16.791Z,99.99
2017-09-18T04:51:38.993Z,99.99
2017-09-18T04:53:01.153Z,99.99
2017-09-18T04:54:23.291Z,99.99
2017-09-18T04:55:45.413Z,99.99
2017-09-18T04:57:07.563Z,99.99
2017-09-18T04:58:30.057Z,99.99
2017-09-18T04:59:51.994Z,99.99
2017-09-18T05:01:13.818Z,99.99
2017-09-18T05:02:35.305Z,99.99
2017-09-18T05:03:57.193Z,99.99
2017-09-18T05:05:18.709Z,99.99
2017-09-18T05:06:40.843Z,99.99
2017-09-18T05:08:02.333Z,99.99
2017-09-18T05:09:24.383Z,99.99
2017-09-18T05:10:46.209Z,99.99
2017-09-18T05:12:08.652Z,99.99
2017-09-18T05:13:30.464Z,99.99
2017-09-18T05:14:52.960Z,99.99
2017-09-18T05:16:15.494Z,99.99
2017-09-18T05:17:37.631Z,99.99
2017-09-18T05:18:59.443Z,99.99
2017-09-18T05:20:21.573Z,99.99
2017-09-18T05:21:43.834Z,99.99
2017-09-18T05:23:06.096Z,99.99
2017-09-18T05:24:27.914Z,99.99
2017-09-18T05:25:50.363Z,99.99
2017-09-18T05:27:12.832Z,99.99
2017-09-18T05:28:34.773Z,99.99
2017-09-18T05:29:56.266Z,99.99
2017-09-18T05:31:18.378Z,99.99
2017-09-18T05:32:40.515Z,99.99
2017-09-18T05:34:02.334Z,99.99
2017-09-18T05:35:23.813Z,99.99
2017-09-18T05:36:45.667Z,99.99
2017-09-18T05:38:07.491Z,99.99
2017-09-18T05:39:29.699Z,99.99
2017-09-18T05:40:51.833Z,99.99
2017-09-18T05:42:14.122Z,99.99
2017-09-18T05:43:35.942Z,99.99
2017-09-18T05:44:58.106Z,99.99
2017-09-18T05:46:19.580Z,99.99
2017-09-18T05:47:41.353Z,99.99
2017-09-18T05:49:03.523Z,99.99
2017-09-18T05:50:25.674Z,99.99
2017-09-18T05:51:47.503Z,99.99
2017-09-18T05:53:09.894Z,99.99
2017-09-18T05:54:32.363Z,99.99
2017-09-18T05:55:54.506Z,99.99
2017-09-18T05:57:16.383Z,99.99
2017-09-18T05:58:38.532Z,99.99
2017-09-18T06:00:00.070Z,99.99
2017-09-18T06:01:21.855Z,99.99
2017-09-18T06:02:44.320Z,99.99
2017-09-18T06:04:06.149Z,99.99
2017-09-18T06:05:28.586Z,99.99
2017-09-18T06:06:50.399Z,99.99
2017-09-18T06:08:12.931Z,99.99
2017-09-18T06:09:34.729Z,99.99
2017-09-18T06:10:56.857Z,99.99
2017-09-18T06:12:18.664Z,99.99
2017-09-18T06:13:40.152Z,99.99
2017-09-18T06:15:02.585Z,99.99
2017-09-18T06:16:24.443Z,99.99
2017-09-18T06:17:46.263Z,99.99
2017-09-18T06:19:07.443Z,99.99
2017-09-18T06:20:29.283Z,99.99
2017-09-18T06:21:51.412Z,99.99
2017-09-18T06:23:13.234Z,99.99
2017-09-18T06:24:35.379Z,99.99
2017-09-18T06:25:57.220Z,99.99
2017-09-18T06:27:19.015Z,99.99
2017-09-18T06:28:40.842Z,99.99
2017-09-18T06:30:03.093Z,99.99
2017-09-18T06:31:25.523Z,99.99
2017-09-18T06:32:46.750Z,99.99
2017-09-18T06:34:08.932Z,99.99
2017-09-18T06:35:30.748Z,99.99
2017-09-18T06:36:53.184Z,99.99
2017-09-18T06:38:15.770Z,99.99
2017-09-18T06:39:38.251Z,99.99
2017-09-18T06:41:00.063Z,99.99
2017-09-18T06:42:22.462Z,99.99
2017-09-18T06:43:44.723Z,99.99
2017-09-18T06:45:06.550Z,99.99
2017-09-18T06:46:28.430Z,99.99
2017-09-18T06:47:50.826Z,99.99
2017-09-18T06:49:12.972Z,99.99
2017-09-18T06:50:34.795Z,99.99
2017-09-18T06:51:56.953Z,99.99
2017-09-18T06:53:19.053Z,99.99
2017-09-18T06:54:40.978Z,99.99
2017-09-18T06:56:03.438Z,99.99
2017-09-18T06:57:24.927Z,99.99
2017-09-18T06:58:47.033Z,99.99
2017-09-18T07:00:08.955Z,99.99
2017-09-18T07:01:30.766Z,99.99
2017-09-18T07:02:52.270Z,99.99
2017-09-18T07:04:14.372Z,99.99
2017-09-18T07:05:36.990Z,99.99
2017-09-18T07:06:59.134Z,99.99
2017-09-18T07:08:21.265Z,99.99
2017-09-18T07:09:44.053Z,99.99
2017-09-18T07:11:05.223Z,99.99
2017-09-18T07:12:27.353Z,99.99
2017-09-18T07:13:49.172Z,99.99
2017-09-18T07:15:11.241Z,99.99
2017-09-18T07:16:33.370Z,99.99
2017-09-18T07:17:55.186Z,99.99
2017-09-18T07:19:17.448Z,99.99
2017-09-18T07:20:39.643Z,99.99
2017-09-18T07:22:01.473Z,99.99
2017-09-18T07:23:23.284Z,99.99
2017-09-18T07:24:45.436Z,99.99
2017-09-18T07:26:08.363Z,99.99
2017-09-18T07:27:30.193Z,99.99
2017-09-18T07:28:52.024Z,99.99
2017-09-18T07:30:14.306Z,99.99
2017-09-18T07:31:36.740Z,99.99
2017-09-18T07:32:58.603Z,99.99
2017-09-18T07:34:20.467Z,99.99
2017-09-18T07:35:42.584Z,99.99
2017-09-18T07:37:04.653Z,99.99
2017-09-18T07:38:26.913Z,99.99
2017-09-18T07:39:49.053Z,99.99
2017-09-18T07:41:11.263Z,99.99
2017-09-18T07:42:33.024Z,99.99
2017-09-18T07:43:55.485Z,99.99
2017-09-18T07:45:17.354Z,99.99
2017-09-18T07:46:39.177Z,99.99
2017-09-18T07:48:01.234Z,99.99
2017-09-18T07:49:23.090Z,99.99
2017-09-18T07:50:45.605Z,99.99
2017-09-18T07:52:07.143Z,99.99
2017-09-18T07:53:28.994Z,99.99
2017-09-18T07:54:51.123Z,99.99
2017-09-18T07:56:12.618Z,99.99
2017-09-18T07:57:34.783Z,99.99
2017-09-18T07:58:56.854Z,99.99
2017-09-18T08:00:19.315Z,99.99
2017-09-18T08:01:41.135Z,99.99
2017-09-18T08:03:03.263Z,99.99
2017-09-18T08:04:25.792Z,99.99
2017-09-18T08:05:47.631Z,99.99
2017-09-18T08:07:09.437Z,99.99
2017-09-18T08:08:31.363Z,99.99
2017-09-18T08:09:52.786Z,99.99
2017-09-18T08:11:14.974Z,99.99
2017-09-18T08:12:36.793Z,99.99
2017-09-18T08:13:58.929Z,99.99
2017-09-18T08:15:20.808Z,99.99
2017-09-18T08:16:42.963Z,99.99
2017-09-18T08:18:05.161Z,99.99
2017-09-18T08:19:27.607Z,99.99
2017-09-18T08:20:49.724Z,99.99
2017-09-18T08:22:11.831Z,99.99
2017-09-18T08:23:34.289Z,99.99
2017-09-18T08:24:56.433Z,99.99
2017-09-18T08:26:17.939Z,99.99
2017-09-18T08:27:39.496Z,99.99
2017-09-18T08:29:01.958Z,99.99
2017-09-18T08:30:24.142Z,99.99
2017-09-18T08:31:46.213Z,99.99
2017-09-18T08:33:08.694Z,99.99
2017-09-18T08:34:30.632Z,99.99
2017-09-18T08:35:52.134Z,99.99
2017-09-18T08:37:13.986Z,99.99
2017-09-18T08:38:35.800Z,99.99
2017-09-18T08:39:57.653Z,99.99
2017-09-18T08:41:19.150Z,99.99
2017-09-18T08:42:41.273Z,99.99
2017-09-18T08:44:03.435Z,99.99
2017-09-18T08:45:25.586Z,99.99
2017-09-18T08:46:48.034Z,99.99
2017-09-18T08:48:10.762Z,99.99
2017-09-18T08:49:32.271Z,99.99
2017-09-18T08:50:54.404Z,99.99
2017-09-18T08:52:16.903Z,99.99
2017-09-18T08:53:38.776Z,99.99
2017-09-18T08:55:00.930Z,99.99
2017-09-18T08:56:22.433Z,99.99
2017-09-18T08:57:44.243Z,99.99
2017-09-18T08:59:06.364Z,99.99
2017-09-18T09:00:28.534Z,99.99
2017-09-18T09:01:50.359Z,99.99
2017-09-18T09:03:12.823Z,99.99
2017-09-18T09:04:34.582Z,99.99
2017-09-18T09:05:56.740Z,99.99
2017-09-18T09:07:18.944Z,99.99
2017-09-18T09:08:40.876Z,99.99
2017-09-18T09:10:03.604Z,99.99
2017-09-18T09:11:26.049Z,99.99
2017-09-18T09:12:47.546Z,99.99
2017-09-18T09:14:09.683Z,99.99
2017-09-18T09:15:31.751Z,99.99
2017-09-18T09:16:52.917Z,99.99
2017-09-18T09:18:15.083Z,99.99
2017-09-18T09:19:36.900Z,99.99
2017-09-18T09:20:59.058Z,99.99
2017-09-18T09:22:21.524Z,99.99
2017-09-18T09:23:43.770Z,99.99
2017-09-18T09:25:06.232Z,99.99
2017-09-18T09:26:28.309Z,99.99
2017-09-18T09:27:50.120Z,99.99
2017-09-18T09:29:12.614Z,99.99
2017-09-18T09:30:34.439Z,99.99
2017-09-18T09:31:56.821Z,99.99
2017-09-18T09:33:18.638Z,99.99
2017-09-18T09:34:41.097Z,99.99
2017-09-18T09:36:03.248Z,99.99
2017-09-18T09:37:25.356Z,99.99
2017-09-18T09:38:47.487Z,99.99
2017-09-18T09:40:09.353Z,99.99
2017-09-18T09:41:31.809Z,99.99
2017-09-18T09:42:53.547Z,99.99
2017-09-18T09:44:15.421Z,99.99
2017-09-18T09:45:37.252Z,99.99
2017-09-18T09:46:59.421Z,99.99
2017-09-18T09:48:21.274Z,99.99
2017-09-18T09:49:43.414Z,99.99
2017-09-18T09:51:05.232Z,99.99
2017-09-18T09:52:27.421Z,99.99
2017-09-18T09:53:49.813Z,99.99
2017-09-18T09:55:11.750Z,99.99
2017-09-18T09:56:33.553Z,99.99
2017-09-18T09:57:55.054Z,99.99
2017-09-18T09:59:17.516Z,99.99
2017-09-18T10:00:39.674Z,99.99
2017-09-18T10:02:01.903Z,99.99
2017-09-18T10:03:24.057Z,99.99
2017-09-18T10:04:46.553Z,99.99
2017-09-18T10:06:08.714Z,99.99
2017-09-18T10:07:30.885Z,99.99
2017-09-18T10:08:53.353Z,99.99
2017-09-18T10:10:15.466Z,99.99
2017-09-18T10:11:37.279Z,99.99
2017-09-18T10:12:59.481Z,99.99
2017-09-18T10:14:21.307Z,99.99
2017-09-18T10:15:44.122Z,99.99
2017-09-18T10:17:05.624Z,99.99
2017-09-18T10:18:27.551Z,99.99
2017-09-18T10:19:49.373Z,99.99
2017-09-18T10:21:11.689Z,99.99
2017-09-18T10:22:34.174Z,99.99
2017-09-18T10:23:56.302Z,99.99
2017-09-18T10:25:18.130Z,99.99
2017-09-18T10:26:40.606Z,99.99
2017-09-18T10:28:02.423Z,99.99
2017-09-18T10:29:24.357Z,99.99
2017-09-18T10:30:46.192Z,99.99
2017-09-18T10:32:08.753Z,99.99
2017-09-18T10:33:30.606Z,99.99
2017-09-18T10:34:52.746Z,99.99
2017-09-18T10:36:14.492Z,99.99
2017-09-18T10:37:36.873Z,99.99
2017-09-18T10:38:59.044Z,99.99
2017-09-18T10:40:21.170Z,99.99
2017-09-18T10:41:43.613Z,99.99
2017-09-18T10:43:05.452Z,99.99
2017-09-18T10:44:27.615Z,99.99
2017-09-18T10:45:50.135Z,99.99
2017-09-18T10:47:12.594Z,99.99
2017-09-18T10:48:35.211Z,99.99
2017-09-18T10:49:57.035Z,99.99
2017-09-18T10:51:19.181Z,99.99
2017-09-18T10:52:41.325Z,99.99
2017-09-18T10:54:04.119Z,99.99
2017-09-18T10:55:25.665Z,99.99
2017-09-18T10:56:48.143Z,99.99
2017-09-18T10:58:09.647Z,99.99
2017-09-18T10:59:31.418Z,99.99
2017-09-18T11:00:53.253Z,99.99
2017-09-18T11:02:15.713Z,99.99
2017-09-18T11:03:38.150Z,99.99
2017-09-18T11:05:00.583Z,99.99
2017-09-18T11:06:22.092Z,99.99
2017-09-18T11:07:44.399Z,99.99
2017-09-18T11:09:06.054Z,99.99
2017-09-18T11:10:27.529Z,99.99
2017-09-18T11:11:49.664Z,98.1
2017-09-18T11:13:11.802Z,97.14
2017-09-18T11:14:33.944Z,97.62
2017-09-18T11:15:56.189Z,97.42
2017-09-18T11:17:17.798Z,96.03
2017-09-18T11:18:40.273Z,94.73
2017-09-18T11:20:02.423Z,92.66
2017-09-18T11:21:24.873Z,94.2
2017-09-18T11:22:47.007Z,93.62
2017-09-18T11:24:09.153Z,93.62
2017-09-18T11:25:30.656Z,93.81
2017-09-18T11:26:52.824Z,94.1
2017-09-18T11:28:14.338Z,92.61
2017-09-18T11:29:35.943Z,93.48
2017-09-18T11:30:58.164Z,92.42
2017-09-18T11:32:20.561Z,94.01
2017-09-18T11:33:42.732Z,92.66
2017-09-18T11:35:04.531Z,92.38
2017-09-18T11:36:26.698Z,92.38
2017-09-18T11:37:49.572Z,91.8
2017-09-18T11:39:11.403Z,91.22
2017-09-18T11:40:33.263Z,93.43
2017-09-18T11:41:55.728Z,93.48
2017-09-18T11:43:18.234Z,92.13
2017-09-18T11:44:40.446Z,94.01
2017-09-18T11:46:02.932Z,94.78
2017-09-18T11:47:25.063Z,92.43
2017-09-18T11:48:46.803Z,91.56
2017-09-18T11:50:08.603Z,90.75
2017-09-18T11:51:30.844Z,90.21
2017-09-18T11:52:54.290Z,90.89
2017-09-18T11:54:16.347Z,91.8
2017-09-18T11:55:38.537Z,93.15
2017-09-18T11:57:00.333Z,93.29
2017-09-18T11:58:22.772Z,90.79
2017-09-18T11:59:45.282Z,90.98
2017-09-18T12:01:06.803Z,92.52
2017-09-18T12:02:29.265Z,93.77
2017-09-18T12:03:51.413Z,92.91
2017-09-18T12:05:13.259Z,93.44
2017-09-18T12:06:35.148Z,92.67
2017-09-18T12:07:57.312Z,94.4
2017-09-18T12:09:19.829Z,93.29
2017-09-18T12:10:42.659Z,93.1
2017-09-18T12:12:04.555Z,93.29
2017-09-18T12:13:26.913Z,94.21
2017-09-18T12:14:49.137Z,97.19
2017-09-18T12:16:11.293Z,97.47
2017-09-18T12:17:33.834Z,96.89
2017-09-18T12:18:56.306Z,96.13
2017-09-18T12:20:18.193Z,94.49
2017-09-18T12:21:40.902Z,94.45
2017-09-18T12:23:03.102Z,93.01
2017-09-18T12:24:25.633Z,92.52
2017-09-18T12:25:47.455Z,92.14
2017-09-18T12:27:09.844Z,93.1
2017-09-18T12:28:32.400Z,91.95
2017-09-18T12:29:54.543Z,90.55
2017-09-18T12:31:16.385Z,90.84
2017-09-18T12:32:38.779Z,90.65
2017-09-18T12:34:01.375Z,91.17
2017-09-18T12:35:23.523Z,90.5
2017-09-18T12:36:45.667Z,90.31
2017-09-18T12:38:07.524Z,88.81
2017-09-18T12:39:29.676Z,89.68
2017-09-18T12:40:51.502Z,88.62
2017-09-18T12:42:13.670Z,88.62
2017-09-18T12:43:36.475Z,89.49
2017-09-18T12:44:58.716Z,89.29
2017-09-18T12:46:21.188Z,87.27
2017-09-18T12:47:43.028Z,88.87
2017-09-18T12:49:05.832Z,89.73
2017-09-18T12:50:27.764Z,90.21
2017-09-18T12:51:49.911Z,90.5
2017-09-18T12:53:12.042Z,90.41
2017-09-18T12:54:34.242Z,90.69
2017-09-18T12:55:56.393Z,91.56
2017-09-18T12:57:18.520Z,91.03
2017-09-18T12:58:40.983Z,90.69
2017-09-18T13:00:02.764Z,92.85
2017-09-18T13:01:24.903Z,90.64
2017-09-18T13:02:47.033Z,91.08
2017-09-18T13:04:08.865Z,90.89
2017-09-18T13:05:31.021Z,91.99
2017-09-18T13:06:52.855Z,92.19
2017-09-18T13:08:15.106Z,93.53
2017-09-18T13:09:36.933Z,93.91
2017-09-18T13:10:59.858Z,94.78
2017-09-18T13:12:21.999Z,94.73
2017-09-18T13:13:44.500Z,96.42
2017-09-18T13:15:06.652Z,97.09
2017-09-18T13:16:29.195Z,97.04
2017-09-18T13:17:51.643Z,99.25
2017-09-18T13:19:13.571Z,99.82
2017-09-18T13:20:36.017Z,99.49
2017-09-18T13:21:58.480Z,99.99
2017-09-18T13:23:19.667Z,99.99
2017-09-18T13:24:41.480Z,99.99
2017-09-18T13:26:03.348Z,99.99
2017-09-18T13:27:25.790Z,99.92
2017-09-18T13:28:47.933Z,98.1
2017-09-18T13:30:10.411Z,98.67
2017-09-18T13:31:31.909Z,97.28
2017-09-18T13:32:54.416Z,94.88
2017-09-18T13:34:16.247Z,95.79
2017-09-18T13:35:38.786Z,96.47
2017-09-18T13:37:01.254Z,96.37
2017-09-18T13:38:22.991Z,96.17
2017-09-18T13:39:44.806Z,93.29
2017-09-18T13:41:07.265Z,94.54
2017-09-18T13:42:29.411Z,94.73
2017-09-18T13:43:51.483Z,94.64
2017-09-18T13:45:14.045Z,93.77
2017-09-18T13:46:36.177Z,93.34
2017-09-18T13:47:58.678Z,94.59
2017-09-18T13:49:21.078Z,93.34
2017-09-18T13:50:43.567Z,92.43
2017-09-18T13:52:06.010Z,91.8
2017-09-18T13:53:28.258Z,92.57
2017-09-18T13:54:50.367Z,93.48
2017-09-18T13:56:12.527Z,94.25
2017-09-18T13:57:34.701Z,93.29
2017-09-18T13:58:56.514Z,93.29
2017-09-18T14:00:19.237Z,93.96
2017-09-18T14:01:41.710Z,94.15
2017-09-18T14:03:04.273Z,93.34
2017-09-18T14:04:26.113Z,93.24
2017-09-18T14:05:48.194Z,94.01
2017-09-18T14:07:09.907Z,97.62
2017-09-18T14:08:32.419Z,96.56
2017-09-18T14:09:54.568Z,94.54
2017-09-18T14:11:17.212Z,95.21
2017-09-18T14:12:39.042Z,95.89
2017-09-18T14:14:00.564Z,93.49
2017-09-18T14:15:23.075Z,93.54
2017-09-18T14:16:44.844Z,95.55
2017-09-18T14:18:07.018Z,97.42
2017-09-18T14:19:29.180Z,98.72
2017-09-18T14:20:51.740Z,99.01
2017-09-18T14:22:14.203Z,98.43
2017-09-18T14:23:36.041Z,99.82
2017-09-18T14:24:58.229Z,99.54
2017-09-18T14:26:20.382Z,98
2017-09-18T14:27:43.102Z,97.38
2017-09-18T14:29:05.254Z,95.4
2017-09-18T14:30:27.812Z,94.06
2017-09-18T14:31:49.955Z,94.78
2017-09-18T14:33:11.843Z,94.78
2017-09-18T14:34:33.695Z,94.45
2017-09-18T14:35:56.171Z,92.29
2017-09-18T14:37:18.632Z,93.34
2017-09-18T14:38:55.964Z,94.49
2017-09-18T14:40:18.423Z,95.03
2017-09-18T14:41:40.903Z,94.49
2017-09-18T14:43:03.493Z,94.45
2017-09-18T14:44:26.268Z,94.45
2017-09-18T14:45:48.880Z,94.83
2017-09-18T14:47:10.712Z,94.69
2017-09-18T14:48:32.914Z,98
2017-09-18T14:49:55.334Z,98.14
2017-09-18T14:51:17.954Z,99.58
2017-09-18T14:52:39.806Z,99.87
2017-09-18T14:54:01.960Z,99.49
2017-09-18T14:55:25.068Z,98.91
2017-09-18T14:56:47.349Z,99.1
2017-09-18T14:58:09.476Z,98.14
2017-09-18T14:59:31.408Z,99.77
2017-09-18T15:00:53.863Z,99.99
2017-09-18T15:02:16.354Z,99.2
2017-09-18T15:03:38.857Z,98.33
2017-09-18T15:05:01.084Z,98.91
2017-09-18T15:06:23.908Z,98.62
2017-09-18T15:07:46.154Z,98.33
2017-09-18T15:09:08.310Z,98.53
2017-09-18T15:10:30.488Z,99.77
2017-09-18T15:11:52.419Z,99.99
2017-09-18T15:13:14.918Z,99.99
2017-09-18T15:14:36.755Z,99.99
2017-09-18T15:15:58.625Z,99.99
2017-09-18T15:17:21.479Z,99.99
2017-09-18T15:18:43.298Z,99.99
2017-09-18T15:20:05.130Z,99.99
2017-09-18T15:21:27.708Z,99.99
2017-09-18T15:22:50.180Z,99.99
2017-09-18T15:24:12.375Z,99.99
2017-09-18T15:25:34.580Z,99.99
2017-09-18T15:26:56.721Z,99.99
2017-09-18T15:28:19.161Z,99.99
2017-09-18T15:29:41.316Z,99.99
2017-09-18T15:31:02.934Z,99.99
2017-09-18T15:32:25.221Z,99.99
2017-09-18T15:33:47.691Z,99.99
2017-09-18T15:35:09.537Z,99.99
2017-09-18T15:36:31.362Z,99.99
2017-09-18T15:37:52.949Z,99.99
2017-09-18T15:39:15.657Z,99.99
2017-09-18T15:40:38.212Z,99.99
2017-09-18T15:42:00.365Z,99.99
2017-09-18T15:43:22.522Z,99.99
2017-09-18T15:44:45.249Z,99.99
2017-09-18T15:46:06.438Z,99.99
2017-09-18T15:47:28.928Z,99.99
2017-09-18T15:48:51.436Z,99.99
2017-09-18T15:50:14.212Z,99.99
2017-09-18T15:51:36.374Z,99.99
2017-09-18T15:52:58.551Z,99.99
2017-09-18T15:54:20.760Z,99.99
2017-09-18T15:55:43.520Z,99.99
2017-09-18T15:57:06.011Z,99.99
2017-09-18T15:58:28.491Z,99.99
2017-09-18T15:59:50.321Z,99.99
2017-09-18T16:01:13.072Z,99.99
2017-09-18T16:02:35.653Z,99.99
2017-09-18T16:03:57.818Z,99.99
2017-09-18T16:05:20.312Z,99.99
2017-09-18T16:06:42.124Z,99.99
2017-09-18T16:08:04.285Z,99.99
2017-09-18T16:09:26.736Z,99.99
2017-09-18T16:10:48.894Z,99.99
2017-09-18T16:12:11.042Z,99.99
2017-09-18T16:13:33.233Z,99.99
2017-09-18T16:14:55.699Z,99.99
2017-09-18T16:16:18.155Z,99.99
2017-09-18T16:17:40.629Z,99.99
2017-09-18T16:19:02.776Z,99.99
2017-09-18T16:20:24.998Z,99.99
2017-09-18T16:21:47.204Z,99.99
2017-09-18T16:23:10.076Z,99.99
2017-09-18T16:24:32.247Z,99.99
2017-09-18T16:25:54.406Z,99.99
2017-09-18T16:27:16.560Z,99.99
2017-09-18T16:28:38.705Z,99.99
2017-09-18T16:30:01.207Z,99.99
2017-09-18T16:31:23.507Z,99.99
2017-09-18T16:32:45.671Z,99.99
2017-09-18T16:34:08.073Z,99.99
2017-09-18T16:35:30.534Z,99.99
2017-09-18T16:36:53.016Z,99.99
2017-09-18T16:38:15.607Z,99.99
2017-09-18T16:39:38.394Z,99.99
2017-09-18T16:41:00.602Z,99.99
2017-09-18T16:42:22.874Z,99.99
2017-09-18T16:43:45.052Z,99.99
2017-09-18T16:45:07.793Z,99.99
2017-09-18T16:46:29.632Z,99.99
2017-09-18T16:47:52.174Z,99.99
2017-09-18T16:49:14.785Z,99.99
2017-09-18T16:50:37.532Z,99.99
2017-09-18T16:52:00.053Z,99.99
2017-09-18T16:53:22.204Z,99.99
2017-09-18T16:54:44.372Z,99.99
2017-09-18T16:56:06.553Z,99.99
2017-09-18T16:57:29.046Z,99.99
2017-09-18T16:58:51.525Z,99.99
2017-09-18T17:00:13.692Z,99.99
2017-09-18T17:01:36.132Z,99.99
2017-09-18T17:02:58.396Z,99.99
2017-09-18T17:04:20.875Z,99.99
2017-09-18T17:05:43.362Z,99.99
2017-09-18T17:07:06.144Z,99.99
2017-09-18T17:08:28.308Z,99.99
2017-09-18T17:09:50.444Z,99.99
2017-09-18T17:11:12.615Z,99.99
2017-09-18T17:12:35.429Z,99.99
2017-09-18T17:13:57.286Z,99.99
2017-09-18T17:15:18.828Z,99.99
2017-09-18T17:16:40.975Z,99.99
2017-09-18T17:18:04.054Z,99.99
2017-09-18T17:19:26.226Z,99.99
2017-09-18T17:20:48.408Z,99.99
2017-09-18T17:22:10.683Z,99.99
2017-09-18T17:23:33.215Z,99.99
2017-09-18T17:24:55.053Z,99.99
2017-09-18T17:26:17.215Z,99.99
2017-09-18T17:27:38.757Z,99.99
2017-09-18T17:29:01.218Z,99.99
2017-09-18T17:30:23.679Z,99.99
2017-09-18T17:31:45.223Z,99.99
2017-09-18T17:33:07.699Z,99.99
2017-09-18T17:34:29.899Z,99.99
2017-09-18T17:35:52.384Z,99.99
2017-09-18T17:37:14.884Z,99.99
2017-09-18T17:38:37.399Z,99.99